Time;durP1;ratioP1;P1;durP2;ratioP2;P2;SDS_P1;SDS_P2;PMS_P1;PMS_P2;Temp;Humidity;BMP_temperature;BMP_pressure;BME280_temperature;BME280_humidity;BME280_pressure;Samples;Min_cycle;Max_cycle;Signal;HPM_P1;HPM_P2
2022/10/01 00:00:10;;;;;;;;;;;;;;;;;;4999718;28;8490;-85
2022/10/01 00:02:36;;;;;;;;;;;;;;;;;;4981678;28;8478;-83
2022/10/01 00:05:02;;;;;;;;;;;;;;;;;;4977987;28;7198;-82
2022/10/01 00:07:27;;;;;;;;;;;;;;;;;;4977312;28;8486;-83
2022/10/01 00:09:53;;;;;;;;;;;;;;;;;;4977669;28;7131;-83
2022/10/01 00:12:18;;;;;;;;;;;;;;;;;;4977640;28;8454;-83
2022/10/01 00:14:44;;;;;;;;;;;;;;;;;;4977688;28;8393;-84
2022/10/01 00:17:09;;;;;;;;;;;;;;;;;;4978039;28;8914;-81
2022/10/01 00:19:35;;;;;;;;;;;;;;;;;;4978688;28;8622;-82
2022/10/01 00:22:01;;;;;;;;;;;;;;;;;;4980859;28;8421;-82
2022/10/01 00:24:27;;;;;;;;;;;;;;;;;;4981290;28;7167;-83
2022/10/01 00:26:52;;;;;;;;;;;;;;;;;;4981042;28;7368;-84
2022/10/01 00:29:18;;;;;;;;;;;;;;;;;;4980730;28;6976;-85
2022/10/01 00:31:43;;;;;;;;;;;;;;;;;;4981245;28;8675;-83
2022/10/01 00:34:11;;;;;;;;;;;;;;;;;;4980903;28;6821;-83
2022/10/01 00:36:37;;;;;;;;;;;;;;;;;;4980529;28;7053;-84
2022/10/01 00:39:02;;;;;;;;;;;;;;;;;;4981126;28;6820;-84
2022/10/01 00:41:30;;;;;;;;;;;;;;;;;;4981036;28;8476;-85
2022/10/01 00:43:57;;;;;;;;;;;;;;;;;;4980516;28;8602;-84
2022/10/01 00:46:23;;;;;;;;;;;;;;;;;;4981001;28;8456;-84
2022/10/01 00:48:57;;;;;;;;;;;;;;;;;;4990535;28;8425;-84
2022/10/01 00:51:26;;;;;;;;;;;;;;;;;;4996614;28;7036;-84
2022/10/01 00:53:55;;;;;;;;;;;;;;;;;;5013322;28;8372;-84
2022/10/01 00:56:21;;;;;;;;;;;;;;;;;;5013134;28;7264;-84
2022/10/01 00:58:53;;;;;;;;;;;;;;;;;;5013030;28;8376;-84
2022/10/01 01:01:19;;;;;;;;;;;;;;;;;;5012754;28;7201;-83
2022/10/01 01:03:45;;;;;;;;;;;;;;;;;;5012942;28;7167;-84
2022/10/01 01:06:11;;;;;;;;;;;;;;;;;;5013060;28;8395;-84
2022/10/01 01:08:37;;;;;;;;;;;;;;;;;;5012605;28;8428;-83
2022/10/01 01:11:02;;;;;;;;;;;;;;;;;;5012979;28;8447;-83
2022/10/01 01:13:31;;;;;;;;;;;;;;;;;;4996568;28;9380;-83
2022/10/01 01:15:56;;;;;;;;;;;;;;;;;;4996110;28;7170;-83
2022/10/01 01:18:31;;;;;;;;;;;;;;;;;;4996234;28;9528;-82
2022/10/01 01:21:02;;;;;;;;;;;;;;;;;;5013060;28;8436;-83
2022/10/01 01:23:58;;;;;;;;;;;;;;;;;;4996000;28;7257;-83
2022/10/01 01:26:23;;;;;;;;;;;;;;;;;;5012003;28;8482;-83
2022/10/01 01:28:58;;;;;;;;;;;;;;;;;;4996052;28;8840;-84
2022/10/01 01:31:30;;;;;;;;;;;;;;;;;;5012406;28;7935;-84
2022/10/01 01:33:58;;;;;;;;;;;;;;;;;;5013905;28;7051;-83
2022/10/01 01:36:34;;;;;;;;;;;;;;;;;;5012774;28;8417;-84
2022/10/01 01:39:03;;;;;;;;;;;;;;;;;;5012208;28;7054;-83
2022/10/01 01:41:34;;;;;;;;;;;;;;;;;;5012138;28;7229;-83
2022/10/01 01:44:02;;;;;;;;;;;;;;;;;;5012321;28;9205;-83
2022/10/01 01:46:32;;;;;;;;;;;;;;;;;;5012133;28;8381;-84
2022/10/01 01:49:00;;;;;;;;;;;;;;;;;;5012153;28;9050;-84
2022/10/01 01:51:40;;;;;;;;;;;;;;;;;;5012261;28;8781;-83
2022/10/01 01:54:06;;;;;;;;;;;;;;;;;;5012174;28;7221;-84
2022/10/01 01:56:33;;;;;;;;;;;;;;;;;;5012226;28;8610;-83
2022/10/01 01:58:59;;;;;;;;;;;;;;;;;;5012151;28;7183;-85
2022/10/01 02:01:33;;;;;;;;;;;;;;;;;;5011504;28;7068;-83
2022/10/01 02:04:00;;;;;;;;;;;;;;;;;;5011558;28;7076;-83
2022/10/01 02:06:58;;;;;;;;;;;;;;;;;;5011558;28;7096;-83
2022/10/01 02:09:50;;;;;;;;;;;;;;;;;;4974160;28;7047;-83
2022/10/01 02:12:19;;;;;;;;;;;;;;;;;;4993085;28;8778;-84
2022/10/01 02:15:00;;;;;;;;;;;;;;;;;;4995117;28;7100;-82
2022/10/01 02:17:29;;;;;;;;;;;;;;;;;;5011284;28;8408;-83
2022/10/01 02:20:20;;;;;;;;;;;;;;;;;;4995460;28;8586;-83
2022/10/01 02:22:51;;;;;;;;;;;;;;;;;;5012238;28;7011;-83
2022/10/01 02:25:25;;;;;;;;;;;;;;;;;;5011654;28;8341;-83
2022/10/01 02:27:54;;;;;;;;;;;;;;;;;;5011066;28;6984;-83
2022/10/01 02:30:20;;;;;;;;;;;;;;;;;;5011268;28;8813;-84
2022/10/01 02:32:49;;;;;;;;;;;;;;;;;;5011733;28;7242;-83
2022/10/01 02:35:18;;;;;;;;;;;;;;;;;;5011425;28;8468;-83
2022/10/01 02:37:48;;;;;;;;;;;;;;;;;;5009936;28;7140;-84
2022/10/01 02:40:18;;;;;;;;;;;;;;;;;;5010094;28;7080;-84
2022/10/01 02:42:53;;;;;;;;;;;;;;;;;;5009232;28;8411;-81
2022/10/01 02:45:22;;;;;;;;;;;;;;;;;;5011122;28;8353;-82
2022/10/01 02:47:53;;;;;;;;;;;;;;;;;;5010776;28;7055;-83
2022/10/01 02:50:22;;;;;;;;;;;;;;;;;;4994936;28;8406;-82
2022/10/01 02:53:08;;;;;;;;;;;;;;;;;;5011134;28;7194;-83
2022/10/01 02:55:38;;;;;;;;;;;;;;;;;;4994278;28;8642;-82
2022/10/01 02:58:06;;;;;;;;;;;;;;;;;;5011393;28;7042;-82
2022/10/01 03:00:31;;;;;;;;;;;;;;;;;;5010897;28;7034;-81
2022/10/01 03:02:56;;;;;;;;;;;;;;;;;;5010758;28;7400;-82
2022/10/01 03:05:22;;;;;;;;;;;;;;;;;;5010536;28;8578;-83
2022/10/01 03:07:47;;;;;;;;;;;;;;;;;;5011366;28;7179;-82
2022/10/01 03:10:14;;;;;;;;;;;;;;;;;;5010443;28;7319;-83
2022/10/01 03:12:42;;;;;;;;;;;;;;;;;;5010746;28;7015;-83
2022/10/01 03:15:08;;;;;;;;;;;;;;;;;;5010269;28;7064;-82
2022/10/01 03:17:36;;;;;;;;;;;;;;;;;;5011009;28;8481;-82
2022/10/01 03:20:01;;;;;;;;;;;;;;;;;;5010889;28;7060;-83
2022/10/01 03:22:27;;;;;;;;;;;;;;;;;;5010864;28;7038;-82
2022/10/01 03:24:53;;;;;;;;;;;;;;;;;;5011019;28;7030;-81
2022/10/01 03:27:22;;;;;;;;;;;;;;;;;;5010438;28;8626;-82
2022/10/01 03:29:48;;;;;;;;;;;;;;;;;;5010347;28;8600;-81
2022/10/01 03:32:14;;;;;;;;;;;;;;;;;;5010247;28;7183;-82
2022/10/01 03:34:39;;;;;;;;;;;;;;;;;;5010542;28;7046;-82
2022/10/01 03:37:06;;;;;;;;;;;;;;;;;;5010534;28;7394;-82
2022/10/01 03:39:31;;;;;;;;;;;;;;;;;;5010513;28;7185;-83
2022/10/01 03:41:56;;;;;;;;;;;;;;;;;;5010072;28;6994;-81
2022/10/01 03:44:22;;;;;;;;;;;;;;;;;;5010246;28;8818;-83
2022/10/01 03:46:48;;;;;;;;;;;;;;;;;;5010253;28;7027;-83
2022/10/01 03:49:13;;;;;;;;;;;;;;;;;;5010197;28;8392;-82
2022/10/01 03:51:39;;;;;;;;;;;;;;;;;;5010418;28;8407;-83
2022/10/01 03:54:06;;;;;;;;;;;;;;;;;;5010308;28;8424;-83
2022/10/01 03:56:32;;;;;;;;;;;;;;;;;;5013831;28;8543;-81
2022/10/01 03:58:58;;;;;;;;;;;;;;;;;;5014539;28;7194;-82
2022/10/01 04:01:24;;;;;;;;;;;;;;;;;;5014190;28;8411;-81
2022/10/01 04:03:50;;;;;;;;;;;;;;;;;;5013759;28;7768;-82
2022/10/01 04:06:17;;;;;;;;;;;;;;;;;;5013679;28;7176;-81
2022/10/01 04:08:42;;;;;;;;;;;;;;;;;;5014034;28;8739;-82
2022/10/01 04:11:07;;;;;;;;;;;;;;;;;;5013987;28;8715;-82
2022/10/01 04:13:34;;;;;;;;;;;;;;;;;;5014291;28;8471;-80
2022/10/01 04:16:00;;;;;;;;;;;;;;;;;;5013619;28;7048;-82
2022/10/01 04:18:25;;;;;;;;;;;;;;;;;;5013444;28;8471;-82
2022/10/01 04:20:51;;;;;;;;;;;;;;;;;;5013818;28;8380;-83
2022/10/01 04:23:16;;;;;;;;;;;;;;;;;;5013670;28;7074;-83
2022/10/01 04:25:42;;;;;;;;;;;;;;;;;;4997560;28;7371;-82
2022/10/01 04:28:11;;;;;;;;;;;;;;;;;;5013732;28;7035;-81
2022/10/01 04:30:39;;;;;;;;;;;;;;;;;;5013349;28;8702;-82
2022/10/01 04:33:05;;;;;;;;;;;;;;;;;;5013362;28;8437;-82
2022/10/01 04:35:31;;;;;;;;;;;;;;;;;;5013328;28;8552;-83
2022/10/01 04:38:00;;;;;;;;;;;;;;;;;;5015772;28;7914;-81
2022/10/01 04:40:26;;;;;;;;;;;;;;;;;;5013309;28;7050;-81
2022/10/01 04:42:51;;;;;;;;;;;;;;;;;;5013744;28;8765;-83
2022/10/01 04:45:17;;;;;;;;;;;;;;;;;;5013110;28;7034;-82
2022/10/01 04:47:51;;;;;;;;;;;;;;;;;;5013283;28;8429;-82
2022/10/01 04:50:17;;;;;;;;;;;;;;;;;;5012996;28;6837;-82
2022/10/01 04:52:43;;;;;;;;;;;;;;;;;;5012979;28;7174;-82
2022/10/01 04:55:10;;;;;;;;;;;;;;;;;;5013474;28;8501;-83
2022/10/01 04:57:37;;;;;;;;;;;;;;;;;;5012705;28;7078;-81
2022/10/01 05:00:05;;;;;;;;;;;;;;;;;;5012920;28;8501;-83
2022/10/01 05:02:33;;;;;;;;;;;;;;;;;;5013196;28;7204;-82
2022/10/01 05:05:06;;;;;;;;;;;;;;;;;;5013000;28;7073;-81
2022/10/01 05:07:33;;;;;;;;;;;;;;;;;;5012736;28;7422;-81
2022/10/01 05:09:59;;;;;;;;;;;;;;;;;;5011780;28;7052;-82
2022/10/01 05:12:26;;;;;;;;;;;;;;;;;;5013246;28;7221;-82
2022/10/01 05:14:52;;;;;;;;;;;;;;;;;;5012271;28;7244;-82
2022/10/01 05:17:18;;;;;;;;;;;;;;;;;;5012422;28;8484;-81
2022/10/01 05:19:44;;;;;;;;;;;;;;;;;;5012493;28;7228;-84
2022/10/01 05:22:09;;;;;;;;;;;;;;;;;;5006849;28;9401;-83
2022/10/01 05:24:35;;;;;;;;;;;;;;;;;;4989361;28;8578;-80
2022/10/01 05:27:00;;;;;;;;;;;;;;;;;;4987835;28;8813;-82
2022/10/01 05:29:26;;;;;;;;;;;;;;;;;;4987857;28;6980;-82
2022/10/01 05:31:51;;;;;;;;;;;;;;;;;;4989802;28;8683;-81
2022/10/01 05:34:16;;;;;;;;;;;;;;;;;;4986125;28;7249;-81
2022/10/01 05:36:42;;;;;;;;;;;;;;;;;;4986902;28;8400;-80
2022/10/01 05:39:07;;;;;;;;;;;;;;;;;;4987060;28;8442;-81
2022/10/01 05:41:33;;;;;;;;;;;;;;;;;;4988641;28;7179;-81
2022/10/01 05:43:59;;;;;;;;;;;;;;;;;;4989412;28;8479;-82
2022/10/01 05:46:25;;;;;;;;;;;;;;;;;;4989381;28;8384;-82
2022/10/01 05:48:51;;;;;;;;;;;;;;;;;;4987165;28;7252;-83
2022/10/01 05:51:17;;;;;;;;;;;;;;;;;;4987808;28;8656;-82
2022/10/01 05:53:44;;;;;;;;;;;;;;;;;;4986952;28;7074;-81
2022/10/01 05:56:10;;;;;;;;;;;;;;;;;;4986593;28;6826;-82
2022/10/01 05:58:35;;;;;;;;;;;;;;;;;;4985391;28;7038;-82
2022/10/01 06:01:01;;;;;;;;;;;;;;;;;;4987720;28;8182;-82
2022/10/01 06:03:27;;;;;;;;;;;;;;;;;;4986643;28;8346;-81
2022/10/01 06:05:53;;;;;;;;;;;;;;;;;;4986582;28;7077;-82
2022/10/01 06:08:20;;;;;;;;;;;;;;;;;;4986743;28;8674;-82
2022/10/01 06:10:48;;;;;;;;;;;;;;;;;;4986609;28;7108;-81
2022/10/01 06:13:16;;;;;;;;;;;;;;;;;;4987866;28;8816;-82
2022/10/01 06:15:43;;;;;;;;;;;;;;;;;;4989108;28;7192;-80
2022/10/01 06:18:11;;;;;;;;;;;;;;;;;;4978345;28;8377;-82
2022/10/01 06:20:38;;;;;;;;;;;;;;;;;;4978959;28;8475;-82
2022/10/01 06:23:06;;;;;;;;;;;;;;;;;;4978769;28;8520;-78
2022/10/01 06:25:33;;;;;;;;;;;;;;;;;;4979326;28;7025;-76
2022/10/01 06:27:59;;;;;;;;;;;;;;;;;;4978902;28;7424;-81
2022/10/01 06:30:26;;;;;;;;;;;;;;;;;;4978579;28;8682;-82
2022/10/01 06:32:58;;;;;;;;;;;;;;;;;;4979361;28;7073;-82
2022/10/01 06:35:23;;;;;;;;;;;;;;;;;;4978869;28;8416;-82
2022/10/01 06:37:50;;;;;;;;;;;;;;;;;;4979248;28;8271;-81
2022/10/01 06:40:15;;;;;;;;;;;;;;;;;;4978467;28;7036;-82
2022/10/01 06:42:46;;;;;;;;;;;;;;;;;;4978589;28;8358;-82
2022/10/01 06:45:12;;;;;;;;;;;;;;;;;;4978730;28;8450;-83
2022/10/01 06:47:37;;;;;;;;;;;;;;;;;;4978261;28;8433;-84
2022/10/01 06:50:03;;;;;;;;;;;;;;;;;;4978353;28;7414;-84
2022/10/01 06:55:13;;;;;;;;;;;;;;;;;;4995717;28;6810;-83
2022/10/01 06:57:38;;;;;;;;;;;;;;;;;;4978244;28;8441;-82
2022/10/01 07:00:04;;;;;;;;;;;;;;;;;;4978093;28;8393;-83
2022/10/01 07:02:31;;;;;;;;;;;;;;;;;;4978549;28;7227;-80
2022/10/01 07:05:00;;;;;;;;;;;;;;;;;;4979937;28;8389;-81
2022/10/01 07:07:30;;;;;;;;;;;;;;;;;;4989010;28;7166;-81
2022/10/01 07:09:56;;;;;;;;;;;;;;;;;;4986134;28;7190;-82
2022/10/01 07:12:22;;;;;;;;;;;;;;;;;;4986105;28;7027;-82
2022/10/01 07:14:47;;;;;;;;;;;;;;;;;;4988349;28;8491;-81
2022/10/01 07:17:14;;;;;;;;;;;;;;;;;;4997506;28;8412;-82
2022/10/01 07:19:39;;;;;;;;;;;;;;;;;;4993428;28;8658;-83
2022/10/01 07:22:04;;;;;;;;;;;;;;;;;;4988130;28;9454;-82
2022/10/01 07:24:30;;;;;;;;;;;;;;;;;;4986249;28;8260;-82
2022/10/01 07:26:55;;;;;;;;;;;;;;;;;;4986387;28;8431;-82
2022/10/01 07:29:22;;;;;;;;;;;;;;;;;;4989296;28;7945;-82
2022/10/01 07:31:49;;;;;;;;;;;;;;;;;;4992028;28;7757;-81
2022/10/01 07:34:14;;;;;;;;;;;;;;;;;;4992460;28;8537;-82
2022/10/01 07:36:41;;;;;;;;;;;;;;;;;;4991314;28;7411;-81
2022/10/01 07:39:07;;;;;;;;;;;;;;;;;;4984496;28;7449;-81
2022/10/01 07:41:32;;;;;;;;;;;;;;;;;;4981581;28;8597;-81
2022/10/01 07:43:58;;;;;;;;;;;;;;;;;;4981050;28;8407;-82
2022/10/01 07:46:23;;;;;;;;;;;;;;;;;;4981411;28;8392;-81
2022/10/01 07:48:49;;;;;;;;;;;;;;;;;;4981411;28;8404;-82
2022/10/01 07:51:14;;;;;;;;;;;;;;;;;;4981487;28;8467;-81
2022/10/01 07:53:40;;;;;;;;;;;;;;;;;;4982341;28;8377;-83
2022/10/01 07:56:05;;;;;;;;;;;;;;;;;;4981681;28;6840;-84
2022/10/01 07:58:31;;;;;;;;;;;;;;;;;;4981396;28;7469;-83
2022/10/01 08:00:59;;;;;;;;;;;;;;;;;;4981420;28;7686;-84
2022/10/01 08:03:25;;;;;;;;;;;;;;;;;;4981157;28;7251;-85
2022/10/01 08:05:51;;;;;;;;;;;;;;;;;;4980970;28;8386;-81
2022/10/01 08:08:17;;;;;;;;;;;;;;;;;;4981569;28;8531;-83
2022/10/01 08:10:42;;;;;;;;;;;;;;;;;;4981363;28;8414;-82
2022/10/01 08:13:15;;;;;;;;;;;;;;;;;;4981985;28;8401;-82
2022/10/01 08:15:42;;;;;;;;;;;;;;;;;;4982650;28;7075;-81
2022/10/01 08:18:09;;;;;;;;;;;;;;;;;;4981266;28;8486;-82
2022/10/01 08:20:38;;;;;;;;;;;;;;;;;;4981177;28;7039;-83
2022/10/01 08:23:10;;;;;;;;;;;;;;;;;;4981538;28;7080;-82
2022/10/01 08:25:36;;;;;;;;;;;;;;;;;;4980762;28;8532;-82
2022/10/01 08:28:02;;;;;;;;;;;;;;;;;;4980820;28;8506;-82
2022/10/01 08:30:28;;;;;;;;;;;;;;;;;;4981294;28;8767;-82
2022/10/01 08:32:54;;;;;;;;;;;;;;;;;;4980964;28;8406;-82
2022/10/01 08:35:21;;;;;;;;;;;;;;;;;;4980638;28;7434;-82
2022/10/01 08:37:46;;;;;;;;;;;;;;;;;;4981367;28;7377;-81
2022/10/01 08:40:12;;;;;;;;;;;;;;;;;;4979846;28;9448;-82
2022/10/01 08:42:46;;;;;;;;;;;;;;;;;;4980741;28;8564;-82
2022/10/01 08:45:16;;;;;;;;;;;;;;;;;;4980531;28;7410;-82
2022/10/01 08:47:56;;;;;;;;;;;;;;;;;;4980416;28;7044;-82
2022/10/01 08:50:51;;;;;;;;;;;;;;;;;;4980857;28;9292;-81
2022/10/01 08:53:29;;;;;;;;;;;;;;;;;;4981262;28;7181;-82
2022/10/01 08:55:56;;;;;;;;;;;;;;;;;;4980178;28;7230;-82
2022/10/01 08:58:27;;;;;;;;;;;;;;;;;;4980894;28;8396;-82
2022/10/01 09:00:54;;;;;;;;;;;;;;;;;;4980266;28;7012;-82
2022/10/01 09:03:19;;;;;;;;;;;;;;;;;;4982056;28;8525;-81
2022/10/01 09:05:53;;;;;;;;;;;;;;;;;;4980010;28;8720;-82
2022/10/01 09:08:21;;;;;;;;;;;;;;;;;;4980168;28;8821;-82
2022/10/01 09:11:03;;;;;;;;;;;;;;;;;;4979815;28;7188;-82
2022/10/01 09:13:41;;;;;;;;;;;;;;;;;;4979408;28;6838;-80
2022/10/01 09:16:07;;;;;;;;;;;;;;;;;;4978297;28;7020;-80
2022/10/01 09:18:38;;;;;;;;;;;;;;;;;;4978519;28;7207;-81
2022/10/01 09:21:12;;;;;;;;;;;;;;;;;;4978245;28;8607;-82
2022/10/01 09:23:44;;;;;;;;;;;;;;;;;;4978176;28;8402;-81
2022/10/01 09:26:11;;;;;;;;;;;;;;;;;;4977997;28;8686;-79
2022/10/01 09:28:40;;;;;;;;;;;;;;;;;;4979171;28;7065;-82
2022/10/01 09:31:15;;;;;;;;;;;;;;;;;;4979961;28;7251;-81
2022/10/01 09:33:43;;;;;;;;;;;;;;;;;;4979700;28;8407;-82
2022/10/01 09:36:19;;;;;;;;;;;;;;;;;;4979795;28;8635;-82
2022/10/01 09:39:01;;;;;;;;;;;;;;;;;;4980055;28;8507;-81
2022/10/01 09:41:27;;;;;;;;;;;;;;;;;;4979525;28;8404;-81
2022/10/01 09:43:52;;;;;;;;;;;;;;;;;;4980035;28;7032;-82
2022/10/01 09:46:18;;;;;;;;;;;;;;;;;;4979760;28;8490;-82
2022/10/01 09:48:59;;;;;;;;;;;;;;;;;;4979082;28;9136;-82
2022/10/01 09:51:30;;;;;;;;;;;;;;;;;;4979760;28;8899;-81
2022/10/01 09:54:02;;;;;;;;;;;;;;;;;;4963911;28;7270;-81
2022/10/01 09:56:41;;;;;;;;;;;;;;;;;;4979417;28;7111;-82
2022/10/01 09:59:15;;;;;;;;;;;;;;;;;;4979172;28;7528;-82
2022/10/01 10:01:49;;;;;;;;;;;;;;;;;;4979962;28;8422;-82
2022/10/01 10:04:20;;;;;;;;;;;;;;;;;;4979045;28;7924;-82
2022/10/01 10:06:46;;;;;;;;;;;;;;;;;;4979301;28;7327;-79
2022/10/01 10:09:15;;;;;;;;;;;;;;;;;;4979553;28;7187;-81
2022/10/01 10:11:44;;;;;;;;;;;;;;;;;;4979536;28;7038;-82
2022/10/01 10:14:19;;;;;;;;;;;;;;;;;;4978804;28;7164;-82
2022/10/01 10:16:47;;;;;;;;;;;;;;;;;;4978472;28;7139;-82
2022/10/01 10:19:24;;;;;;;;;;;;;;;;;;4979152;28;9211;-83
2022/10/01 10:21:52;;;;;;;;;;;;;;;;;;4978880;28;7055;-82
2022/10/01 10:24:26;;;;;;;;;;;;;;;;;;4978998;28;8396;-82
2022/10/01 10:26:54;;;;;;;;;;;;;;;;;;4975767;28;7511;-82
2022/10/01 10:29:25;;;;;;;;;;;;;;;;;;4983267;28;7183;-82
2022/10/01 10:31:54;;;;;;;;;;;;;;;;;;4995151;28;7082;-82
2022/10/01 10:34:20;;;;;;;;;;;;;;;;;;5011045;28;7075;-82
2022/10/01 10:36:47;;;;;;;;;;;;;;;;;;4994996;28;9117;-82
2022/10/01 10:39:30;;;;;;;;;;;;;;;;;;5012407;28;7036;-82
2022/10/01 10:41:58;;;;;;;;;;;;;;;;;;5011855;28;7266;-81
2022/10/01 10:44:30;;;;;;;;;;;;;;;;;;5011493;28;7187;-82
2022/10/01 10:47:01;;;;;;;;;;;;;;;;;;5010814;28;7103;-82
2022/10/01 10:49:31;;;;;;;;;;;;;;;;;;5011859;28;7064;-82
2022/10/01 10:51:59;;;;;;;;;;;;;;;;;;5010770;28;6896;-83
2022/10/01 10:54:25;;;;;;;;;;;;;;;;;;5011371;28;7145;-82
2022/10/01 10:56:53;;;;;;;;;;;;;;;;;;4994857;28;9141;-83
2022/10/01 10:59:18;;;;;;;;;;;;;;;;;;5010923;28;9601;-83
2022/10/01 11:01:46;;;;;;;;;;;;;;;;;;5011249;28;8402;-82
2022/10/01 11:04:38;;;;;;;;;;;;;;;;;;5010316;28;8722;-86
2022/10/01 11:07:05;;;;;;;;;;;;;;;;;;4992208;28;9545;-82
2022/10/01 11:09:43;;;;;;;;;;;;;;;;;;5011201;28;8402;-80
2022/10/01 11:12:17;;;;;;;;;;;;;;;;;;4994620;28;8904;-81
2022/10/01 11:15:02;;;;;;;;;;;;;;;;;;4994850;28;8500;-81
2022/10/01 11:17:30;;;;;;;;;;;;;;;;;;4994007;28;8729;-82
2022/10/01 11:20:12;;;;;;;;;;;;;;;;;;4994374;28;9802;-83
2022/10/01 11:22:52;;;;;;;;;;;;;;;;;;5011155;28;8405;-81
2022/10/01 11:25:36;;;;;;;;;;;;;;;;;;5011209;28;7529;-81
2022/10/01 11:28:09;;;;;;;;;;;;;;;;;;4994177;28;8304;-81
2022/10/01 11:30:34;;;;;;;;;;;;;;;;;;5011243;28;7014;-82
2022/10/01 11:33:18;;;;;;;;;;;;;;;;;;4994849;28;8414;-81
2022/10/01 11:35:50;;;;;;;;;;;;;;;;;;4994023;28;7040;-82
2022/10/01 11:38:38;;;;;;;;;;;;;;;;;;4994668;28;7091;-82
2022/10/01 11:41:23;;;;;;;;;;;;;;;;;;5010484;28;7241;-82
2022/10/01 11:43:48;;;;;;;;;;;;;;;;;;4994416;28;8747;-82
2022/10/01 11:46:32;;;;;;;;;;;;;;;;;;4994143;28;7201;-81
2022/10/01 11:49:04;;;;;;;;;;;;;;;;;;4994629;28;7067;-82
2022/10/01 11:51:37;;;;;;;;;;;;;;;;;;5011038;28;7184;-83
2022/10/01 11:54:09;;;;;;;;;;;;;;;;;;5010345;28;8712;-84
2022/10/01 12:00:00;;;;;;;;;;;;;;;;;;4995517;28;6801;-82
2022/10/01 12:02:28;;;;;;;;;;;;;;;;;;4993531;28;8445;-83
2022/10/01 12:04:57;;;;;;;;;;;;;;;;;;4973035;28;7100;-81
2022/10/01 12:07:32;;;;;;;;;;;;;;;;;;4992302;28;7149;-82
2022/10/01 12:10:20;;;;;;;;;;;;;;;;;;4976171;28;8568;-83
2022/10/01 12:12:57;;;;;;;;;;;;;;;;;;4979712;28;7078;-79
2022/10/01 12:15:23;;;;;;;;;;;;;;;;;;4976106;28;8789;-82
2022/10/01 12:17:55;;;;;;;;;;;;;;;;;;4979699;28;8403;-82
2022/10/01 12:20:26;;;;;;;;;;;;;;;;;;4979722;28;7175;-80
2022/10/01 12:22:53;;;;;;;;;;;;;;;;;;4996125;28;7227;-83
2022/10/01 12:25:23;;;;;;;;;;;;;;;;;;4995473;28;9256;-84
2022/10/01 12:28:11;;;;;;;;;;;;;;;;;;4996216;28;7203;-81
2022/10/01 12:30:45;;;;;;;;;;;;;;;;;;4995961;28;7294;-82
2022/10/01 12:33:30;;;;;;;;;;;;;;;;;;4978614;28;7142;-83
2022/10/01 12:36:14;;;;;;;;;;;;;;;;;;4995774;28;7079;-83
2022/10/01 12:38:54;;;;;;;;;;;;;;;;;;4981259;28;7219;-83
2022/10/01 12:41:28;;;;;;;;;;;;;;;;;;4975552;28;8459;-82
2022/10/01 12:43:54;;;;;;;;;;;;;;;;;;4995373;28;8351;-83
2022/10/01 12:46:26;;;;;;;;;;;;;;;;;;4991176;28;7140;-82
2022/10/01 12:49:10;;;;;;;;;;;;;;;;;;4981169;28;7289;-84
2022/10/01 12:51:39;;;;;;;;;;;;;;;;;;4981688;28;8443;-83
2022/10/01 12:54:17;;;;;;;;;;;;;;;;;;4977746;28;8767;-81
2022/10/01 12:56:48;;;;;;;;;;;;;;;;;;4993931;28;8494;-84
2022/10/01 12:59:26;;;;;;;;;;;;;;;;;;4995371;28;8419;-80
2022/10/01 13:01:57;;;;;;;;;;;;;;;;;;5000213;28;6834;-81
2022/10/01 13:04:26;;;;;;;;;;;;;;;;;;4998578;28;8414;-81
2022/10/01 13:06:54;;;;;;;;;;;;;;;;;;4995444;28;7393;-82
2022/10/01 13:09:38;;;;;;;;;;;;;;;;;;4982068;28;7257;-82
2022/10/01 13:12:11;;;;;;;;;;;;;;;;;;4985717;28;8453;-80
2022/10/01 13:14:43;;;;;;;;;;;;;;;;;;4994280;28;7067;-81
2022/10/01 13:17:14;;;;;;;;;;;;;;;;;;5010435;28;7024;-82
2022/10/01 13:19:58;;;;;;;;;;;;;;;;;;5011221;28;7278;-84
2022/10/01 13:22:49;;;;;;;;;;;;;;;;;;4995094;28;6817;-84
2022/10/01 13:25:41;;;;;;;;;;;;;;;;;;4991411;28;8484;-84
2022/10/01 13:28:25;;;;;;;;;;;;;;;;;;4992556;28;8523;-83
2022/10/01 13:30:59;;;;;;;;;;;;;;;;;;4978773;28;7062;-83
2022/10/01 13:33:27;;;;;;;;;;;;;;;;;;4978598;28;7259;-84
2022/10/01 13:35:55;;;;;;;;;;;;;;;;;;4977549;28;7173;-84
2022/10/01 13:38:41;;;;;;;;;;;;;;;;;;4978279;28;7241;-84
2022/10/01 13:41:22;;;;;;;;;;;;;;;;;;4978504;28;7352;-85
2022/10/01 13:43:55;;;;;;;;;;;;;;;;;;4977970;28;8775;-84
2022/10/01 13:46:22;;;;;;;;;;;;;;;;;;4977728;28;7239;-83
2022/10/01 13:48:49;;;;;;;;;;;;;;;;;;4977840;28;8836;-84
2022/10/01 13:51:15;;;;;;;;;;;;;;;;;;4993754;28;7094;-84
2022/10/01 13:53:40;;;;;;;;;;;;;;;;;;5009632;28;7023;-82
2022/10/01 13:56:07;;;;;;;;;;;;;;;;;;4993544;28;8363;-85
2022/10/01 13:58:38;;;;;;;;;;;;;;;;;;4978488;28;8430;-85
2022/10/01 14:01:23;;;;;;;;;;;;;;;;;;4976803;28;8648;-81
2022/10/01 14:03:52;;;;;;;;;;;;;;;;;;4973389;28;7082;-83
2022/10/01 14:06:27;;;;;;;;;;;;;;;;;;4978458;28;8481;-81
2022/10/01 14:08:52;;;;;;;;;;;;;;;;;;4978474;28;7235;-82
2022/10/01 14:16:58;;;;;;;;;;;;;;;;;;4994117;28;6803;-80
2022/10/01 14:19:25;;;;;;;;;;;;;;;;;;4977742;28;7042;-81
2022/10/01 14:21:51;;;;;;;;;;;;;;;;;;4978122;28;7172;-82
2022/10/01 14:24:22;;;;;;;;;;;;;;;;;;4977281;28;8870;-83
2022/10/01 14:26:48;;;;;;;;;;;;;;;;;;4978175;28;8725;-83
2022/10/01 14:29:16;;;;;;;;;;;;;;;;;;4980849;28;8621;-82
2022/10/01 14:32:04;;;;;;;;;;;;;;;;;;4993341;28;8572;-84
2022/10/01 14:34:35;;;;;;;;;;;;;;;;;;5009557;28;8410;-84
2022/10/01 14:37:05;;;;;;;;;;;;;;;;;;4993582;28;8386;-80
2022/10/01 14:39:32;;;;;;;;;;;;;;;;;;5008700;28;8770;-80
2022/10/01 14:41:57;;;;;;;;;;;;;;;;;;5010012;28;7232;-79
2022/10/01 14:44:25;;;;;;;;;;;;;;;;;;5009204;28;8482;-80
2022/10/01 14:46:52;;;;;;;;;;;;;;;;;;5010211;28;7231;-79
2022/10/01 14:49:23;;;;;;;;;;;;;;;;;;5009493;28;8425;-82
2022/10/01 14:51:51;;;;;;;;;;;;;;;;;;5009555;28;7188;-86
2022/10/01 14:54:18;;;;;;;;;;;;;;;;;;5009170;28;7046;-82
2022/10/01 14:56:44;;;;;;;;;;;;;;;;;;5009675;28;8685;-84
2022/10/01 14:59:18;;;;;;;;;;;;;;;;;;5008943;28;8344;-83
2022/10/01 15:01:53;;;;;;;;;;;;;;;;;;5009432;28;7167;-82
2022/10/01 15:04:20;;;;;;;;;;;;;;;;;;5009190;28;7269;-84
2022/10/01 15:06:46;;;;;;;;;;;;;;;;;;5009260;28;7125;-82
2022/10/01 15:09:13;;;;;;;;;;;;;;;;;;5008507;28;7024;-82
2022/10/01 15:11:41;;;;;;;;;;;;;;;;;;4995577;28;7098;-82
2022/10/01 15:14:13;;;;;;;;;;;;;;;;;;4992190;28;7137;-83
2022/10/01 15:16:39;;;;;;;;;;;;;;;;;;4992591;28;7047;-83
2022/10/01 15:19:12;;;;;;;;;;;;;;;;;;4976863;28;8520;-83
2022/10/01 15:21:48;;;;;;;;;;;;;;;;;;4992421;28;8497;-83
2022/10/01 15:24:24;;;;;;;;;;;;;;;;;;4991889;28;7265;-83
2022/10/01 15:26:52;;;;;;;;;;;;;;;;;;4977095;28;8836;-83
2022/10/01 15:29:18;;;;;;;;;;;;;;;;;;4989432;28;7006;-81
2022/10/01 15:31:48;;;;;;;;;;;;;;;;;;4956828;28;8538;-82
2022/10/01 15:34:19;;;;;;;;;;;;;;;;;;4957053;28;8437;-83
2022/10/01 15:36:46;;;;;;;;;;;;;;;;;;4956865;28;7263;-83
2022/10/01 15:39:30;;;;;;;;;;;;;;;;;;4957163;28;7015;-82
2022/10/01 15:41:57;;;;;;;;;;;;;;;;;;4957581;28;7433;-84
2022/10/01 15:44:35;;;;;;;;;;;;;;;;;;4957447;28;8879;-83
2022/10/01 15:47:18;;;;;;;;;;;;;;;;;;4958739;28;8620;-83
2022/10/01 15:50:04;;;;;;;;;;;;;;;;;;4966539;28;8390;-81
2022/10/01 15:52:51;;;;;;;;;;;;;;;;;;4981751;28;8754;-83
2022/10/01 15:55:23;;;;;;;;;;;;;;;;;;4981130;28;7187;-82
2022/10/01 15:57:54;;;;;;;;;;;;;;;;;;4980780;28;7008;-82
2022/10/01 16:00:28;;;;;;;;;;;;;;;;;;4979460;28;7097;-83
2022/10/01 16:02:56;;;;;;;;;;;;;;;;;;4976329;28;8731;-82
2022/10/01 16:05:24;;;;;;;;;;;;;;;;;;4976155;28;7270;-81
2022/10/01 16:07:56;;;;;;;;;;;;;;;;;;4976902;28;8180;-83
2022/10/01 16:10:27;;;;;;;;;;;;;;;;;;4983563;28;9328;-83
2022/10/01 16:12:53;;;;;;;;;;;;;;;;;;4978982;28;8488;-79
2022/10/01 16:15:26;;;;;;;;;;;;;;;;;;4979371;28;8514;-82
2022/10/01 16:17:54;;;;;;;;;;;;;;;;;;4980063;28;7125;-84
2022/10/01 16:20:32;;;;;;;;;;;;;;;;;;4980156;28;7513;-83
2022/10/01 16:23:17;;;;;;;;;;;;;;;;;;4979269;28;7232;-82
2022/10/01 16:25:43;;;;;;;;;;;;;;;;;;4979354;28;7044;-84
2022/10/01 16:28:27;;;;;;;;;;;;;;;;;;4979619;28;7046;-81
2022/10/01 16:30:52;;;;;;;;;;;;;;;;;;4979342;28;8663;-85
2022/10/01 16:33:17;;;;;;;;;;;;;;;;;;4979402;28;7425;-84
2022/10/01 16:35:46;;;;;;;;;;;;;;;;;;4979182;28;8774;-85
2022/10/01 16:38:11;;;;;;;;;;;;;;;;;;4979674;28;7436;-85
2022/10/01 16:40:40;;;;;;;;;;;;;;;;;;4980304;28;6995;-84
2022/10/01 16:43:07;;;;;;;;;;;;;;;;;;4979160;28;8424;-86
2022/10/01 16:45:37;;;;;;;;;;;;;;;;;;4978550;28;8529;-85
2022/10/01 16:48:14;;;;;;;;;;;;;;;;;;4979615;28;7034;-89
2022/10/01 16:50:41;;;;;;;;;;;;;;;;;;4979394;28;7175;-81
2022/10/01 16:53:17;;;;;;;;;;;;;;;;;;4979409;28;8640;-81
2022/10/01 16:55:43;;;;;;;;;;;;;;;;;;4978506;28;7240;-84
2022/10/01 16:58:09;;;;;;;;;;;;;;;;;;4979002;28;7002;-82
2022/10/01 17:00:36;;;;;;;;;;;;;;;;;;4979010;28;8471;-83
2022/10/01 17:03:02;;;;;;;;;;;;;;;;;;4978493;28;7173;-81
2022/10/01 17:05:30;;;;;;;;;;;;;;;;;;4977776;28;8456;-81
2022/10/01 17:08:08;;;;;;;;;;;;;;;;;;4977986;28;8504;-82
2022/10/01 17:10:36;;;;;;;;;;;;;;;;;;4978200;28;7104;-83
2022/10/01 17:13:02;;;;;;;;;;;;;;;;;;4978893;28;6921;-83
2022/10/01 17:15:28;;;;;;;;;;;;;;;;;;4977192;28;7085;-82
2022/10/01 17:17:56;;;;;;;;;;;;;;;;;;4978958;28;8449;-83
2022/10/01 17:20:23;;;;;;;;;;;;;;;;;;4978836;28;7046;-83
2022/10/01 17:22:49;;;;;;;;;;;;;;;;;;4977863;28;7178;-81
2022/10/01 17:25:20;;;;;;;;;;;;;;;;;;4993800;28;7227;-82
2022/10/01 17:27:45;;;;;;;;;;;;;;;;;;4994376;28;7041;-83
2022/10/01 17:30:12;;;;;;;;;;;;;;;;;;4975202;28;7346;-84
2022/10/01 17:32:39;;;;;;;;;;;;;;;;;;4975821;28;7167;-84